createdAt,value
2023-03-23T15:59:01.371Z,10.85
2023-03-23T16:04:19.699Z,7.15
2023-03-23T16:09:22.886Z,5.95
2023-03-23T16:14:26.115Z,30.33
2023-03-23T16:19:29.155Z,8.10
2023-03-23T16:24:32.107Z,8.38
2023-03-23T16:34:43.440Z,10.10
2023-03-23T16:39:46.345Z,10.57
2023-03-23T16:44:50.982Z,16.67
2023-03-23T16:49:54.145Z,8.65
2023-03-23T16:54:57.089Z,7.18
2023-03-23T17:00:00.646Z,8.10
2023-03-23T17:05:06.364Z,8.93
2023-03-23T17:10:11.565Z,12.32
2023-03-23T17:15:16.941Z,18.98
2023-03-23T17:20:20.211Z,32.78
2023-03-23T17:25:23.178Z,26.10
2023-03-23T17:30:26.120Z,23.23
2023-03-23T17:35:28.856Z,16.83
2023-03-23T17:40:32.112Z,18.08
2023-03-23T17:45:37.192Z,12.90
2023-03-23T17:50:40.251Z,11.77
2023-03-23T17:55:43.689Z,10.13
2023-03-23T18:00:46.960Z,12.73
2023-03-23T18:05:51.315Z,38.92
2023-03-23T18:10:56.843Z,44.83
2023-03-23T18:16:00.391Z,34.20
2023-03-23T18:21:08.304Z,18.87
2023-03-23T18:26:14.792Z,26.10
2023-03-23T18:31:19.779Z,28.03
2023-03-23T18:36:27.311Z,42.53
2023-03-23T18:41:30.430Z,36.00
2023-03-23T18:46:37.436Z,28.50
2023-03-23T18:51:40.396Z,28.67
2023-03-23T18:56:43.236Z,23.20
2023-03-23T19:01:46.669Z,19.47
2023-03-23T19:06:51.108Z,24.70
2023-03-23T19:11:54.180Z,20.03
2023-03-23T19:16:57.783Z,27.20
2023-03-23T19:22:01.053Z,21.37
2023-03-23T19:27:04.330Z,22.37
2023-03-23T19:32:07.526Z,20.67
2023-03-23T19:37:11.224Z,21.27
2023-03-23T19:42:17.030Z,21.73
2023-03-23T19:47:20.225Z,29.80
2023-03-23T19:52:23.454Z,19.93
2023-03-23T19:57:26.848Z,22.03
2023-03-23T20:02:29.753Z,21.20
2023-03-23T20:07:32.620Z,16.37
2023-03-23T20:12:36.363Z,17.00
2023-03-23T20:17:40.043Z,20.30
2023-03-23T20:22:43.097Z,17.40
2023-03-23T20:27:46.562Z,19.33
2023-03-23T20:32:51.574Z,10.33
2023-03-23T20:37:54.495Z,13.63
2023-03-23T20:42:57.883Z,15.43
2023-03-23T20:48:02.314Z,16.43
2023-03-23T20:53:05.358Z,8.47
2023-03-23T20:58:08.236Z,10.67
2023-03-23T21:03:16.112Z,13.27
2023-03-23T21:08:19.692Z,9.90
2023-03-23T21:13:23.032Z,11.53
2023-03-23T21:18:27.244Z,11.17
2023-03-23T21:23:30.800Z,14.00
2023-03-23T21:28:34.232Z,14.77
2023-03-23T21:33:37.440Z,14.23
2023-03-23T21:38:41.087Z,10.20
2023-03-23T21:43:45.949Z,17.43
2023-03-23T21:48:51.549Z,11.40
2023-03-23T21:53:55.996Z,14.30
2023-03-23T21:59:01.151Z,13.13
2023-03-23T22:04:04.914Z,14.83
2023-03-23T22:09:09.760Z,8.70
2023-03-23T22:14:12.868Z,6.90
2023-03-23T22:19:16.230Z,8.50
2023-03-23T22:24:19.218Z,11.83
2023-03-23T22:29:23.016Z,11.07
2023-03-23T22:34:26.499Z,9.93
2023-03-23T22:39:29.710Z,10.90
2023-03-23T22:44:33.040Z,10.17
2023-03-23T22:49:36.170Z,11.83
2023-03-23T22:54:39.345Z,19.77
2023-03-23T22:59:42.780Z,13.33
2023-03-23T23:04:45.880Z,13.07
2023-03-23T23:09:48.956Z,11.13
2023-03-23T23:14:52.186Z,10.80
2023-03-23T23:19:57.474Z,10.93
2023-03-23T23:25:01.255Z,10.40
2023-03-23T23:30:06.754Z,9.77
2023-03-23T23:35:12.861Z,11.77
2023-03-23T23:40:17.578Z,12.33
2023-03-23T23:45:23.408Z,14.57
2023-03-23T23:50:27.191Z,12.40
2023-03-23T23:55:30.259Z,11.83
